sensor_id;sensor_type;location;lat;lon;timestamp;pressure;altitude;pressure_sealevel;temperature;humidity
61697;BME280;47610;52.252;20.922;2023-02-23T00:01:33;100736.45;;;-0.95;100.00
61697;BME280;47610;52.252;20.922;2023-02-23T00:06:40;100742.48;;;-1.06;100.00
61697;BME280;47610;52.252;20.922;2023-02-23T00:11:43;100734.30;;;-1.16;100.00
61697;BME280;47610;52.252;20.922;2023-02-23T00:16:47;100723.56;;;-1.31;100.00
61697;BME280;47610;52.252;20.922;2023-02-23T00:21:53;100730.30;;;-1.40;100.00
61697;BME280;47610;52.252;20.922;2023-02-23T00:26:59;100723.17;;;-1.55;100.00
61697;BME280;47610;52.252;20.922;2023-02-23T00:32:02;100716.52;;;-1.69;100.00
61697;BME280;47610;52.252;20.922;2023-02-23T00:37:06;100716.48;;;-1.76;100.00
61697;BME280;47610;52.252;20.922;2023-02-23T00:42:12;100711.88;;;-1.81;100.00
61697;BME280;47610;52.252;20.922;2023-02-23T00:47:16;100704.88;;;-1.85;100.00
61697;BME280;47610;52.252;20.922;2023-02-23T00:52:21;100703.85;;;-1.90;100.00
61697;BME280;47610;52.252;20.922;2023-02-23T00:57:24;100697.98;;;-1.97;100.00
61697;BME280;47610;52.252;20.922;2023-02-23T01:02:27;100694.52;;;-1.96;100.00
61697;BME280;47610;52.252;20.922;2023-02-23T01:07:31;100687.66;;;-1.99;100.00
61697;BME280;47610;52.252;20.922;2023-02-23T01:12:34;100687.16;;;-2.01;100.00
61697;BME280;47610;52.252;20.922;2023-02-23T01:17:38;100690.39;;;-2.04;100.00
61697;BME280;47610;52.252;20.922;2023-02-23T01:22:43;100685.80;;;-2.07;100.00
61697;BME280;47610;52.252;20.922;2023-02-23T01:27:45;100683.63;;;-2.09;100.00
61697;BME280;47610;52.252;20.922;2023-02-23T01:32:51;100683.98;;;-2.13;100.00
61697;BME280;47610;52.252;20.922;2023-02-23T01:37:55;100680.40;;;-2.16;100.00
61697;BME280;47610;52.252;20.922;2023-02-23T01:50:52;100671.91;;;-2.22;100.00
61697;BME280;47610;52.252;20.922;2023-02-23T01:55:59;100675.85;;;-2.26;100.00
61697;BME280;47610;52.252;20.922;2023-02-23T02:01:06;100663.35;;;-2.30;100.00
61697;BME280;47610;52.252;20.922;2023-02-23T02:06:16;100662.62;;;-2.33;100.00
61697;BME280;47610;52.252;20.922;2023-02-23T02:11:27;100657.52;;;-2.35;100.00
61697;BME280;47610;52.252;20.922;2023-02-23T02:16:42;100655.85;;;-2.38;100.00
61697;BME280;47610;52.252;20.922;2023-02-23T02:22:14;100652.66;;;-2.41;100.00
61697;BME280;47610;52.252;20.922;2023-02-23T02:27:36;100655.89;;;-2.42;100.00
61697;BME280;47610;52.252;20.922;2023-02-23T02:38:54;100650.78;;;-2.42;100.00
61697;BME280;47610;52.252;20.922;2023-02-23T02:44:08;100649.75;;;-2.41;100.00
61697;BME280;47610;52.252;20.922;2023-02-23T02:49:21;100645.73;;;-2.44;100.00
61697;BME280;47610;52.252;20.922;2023-02-23T02:54:30;100649.62;;;-2.32;100.00
61697;BME280;47610;52.252;20.922;2023-02-23T02:59:47;100645.79;;;-2.18;100.00
61697;BME280;47610;52.252;20.922;2023-02-23T03:04:54;100648.95;;;-2.03;100.00
61697;BME280;47610;52.252;20.922;2023-02-23T03:10:05;100648.61;;;-1.99;100.00
61697;BME280;47610;52.252;20.922;2023-02-23T03:15:25;100648.58;;;-1.93;100.00
61697;BME280;47610;52.252;20.922;2023-02-23T03:20:41;100652.14;;;-1.87;100.00
61697;BME280;47610;52.252;20.922;2023-02-23T03:25:50;100649.49;;;-1.88;100.00
61697;BME280;47610;52.252;20.922;2023-02-23T03:31:06;100652.80;;;-1.96;100.00
61697;BME280;47610;52.252;20.922;2023-02-23T03:36:16;100648.55;;;-2.04;100.00
61697;BME280;47610;52.252;20.922;2023-02-23T03:41:27;100650.65;;;-2.08;100.00
61697;BME280;47610;52.252;20.922;2023-02-23T03:46:32;100649.23;;;-2.04;100.00
61697;BME280;47610;52.252;20.922;2023-02-23T03:51:40;100654.47;;;-1.92;100.00
61697;BME280;47610;52.252;20.922;2023-02-23T03:56:51;100650.16;;;-1.79;100.00
61697;BME280;47610;52.252;20.922;2023-02-23T04:10:45;100661.02;;;-1.43;100.00
61697;BME280;47610;52.252;20.922;2023-02-23T04:15:55;100662.46;;;-1.33;100.00
61697;BME280;47610;52.252;20.922;2023-02-23T04:21:03;100658.77;;;-1.25;100.00
61697;BME280;47610;52.252;20.922;2023-02-23T04:26:10;100659.99;;;-1.19;100.00
61697;BME280;47610;52.252;20.922;2023-02-23T04:31:13;100656.84;;;-1.17;100.00
61697;BME280;47610;52.252;20.922;2023-02-23T04:36:19;100645.98;;;-1.15;100.00
61697;BME280;47610;52.252;20.922;2023-02-23T04:41:23;100646.30;;;-1.09;100.00
61697;BME280;47610;52.252;20.922;2023-02-23T04:46:28;100647.23;;;-1.06;100.00
61697;BME280;47610;52.252;20.922;2023-02-23T04:51:32;100644.90;;;-1.06;100.00
61697;BME280;47610;52.252;20.922;2023-02-23T04:56:37;100641.34;;;-1.06;100.00
61697;BME280;47610;52.252;20.922;2023-02-23T05:01:42;100644.15;;;-1.12;100.00
61697;BME280;47610;52.252;20.922;2023-02-23T05:06:46;100645.16;;;-1.16;100.00
61697;BME280;47610;52.252;20.922;2023-02-23T05:11:50;100639.80;;;-1.19;100.00
61697;BME280;47610;52.252;20.922;2023-02-23T05:16:55;100639.64;;;-1.19;100.00
61697;BME280;47610;52.252;20.922;2023-02-23T05:21:58;100641.48;;;-1.21;100.00
61697;BME280;47610;52.252;20.922;2023-02-23T05:27:02;100638.46;;;-1.27;100.00
61697;BME280;47610;52.252;20.922;2023-02-23T05:32:07;100639.36;;;-1.30;100.00
61697;BME280;47610;52.252;20.922;2023-02-23T05:37:10;100632.99;;;-1.29;100.00
61697;BME280;47610;52.252;20.922;2023-02-23T05:42:13;100634.11;;;-1.27;100.00
61697;BME280;47610;52.252;20.922;2023-02-23T05:47:17;100637.92;;;-1.24;100.00
61697;BME280;47610;52.252;20.922;2023-02-23T05:52:22;100639.62;;;-1.24;100.00
61697;BME280;47610;52.252;20.922;2023-02-23T05:57:27;100643.60;;;-1.22;100.00
61697;BME280;47610;52.252;20.922;2023-02-23T06:02:30;100640.69;;;-1.17;100.00
61697;BME280;47610;52.252;20.922;2023-02-23T06:07:34;100644.73;;;-1.11;100.00
61697;BME280;47610;52.252;20.922;2023-02-23T06:12:39;100648.45;;;-1.06;100.00
61697;BME280;47610;52.252;20.922;2023-02-23T06:17:43;100648.45;;;-0.97;100.00
61697;BME280;47610;52.252;20.922;2023-02-23T06:30:54;100653.73;;;-0.52;100.00
61697;BME280;47610;52.252;20.922;2023-02-23T06:36:00;100651.17;;;-0.27;100.00
61697;BME280;47610;52.252;20.922;2023-02-23T06:41:09;100656.98;;;-0.03;100.00
61697;BME280;47610;52.252;20.922;2023-02-23T06:46:14;100659.15;;;0.21;100.00
61697;BME280;47610;52.252;20.922;2023-02-23T06:51:25;100657.85;;;0.57;100.00
61697;BME280;47610;52.252;20.922;2023-02-23T06:56:31;100657.85;;;0.90;100.00
61697;BME280;47610;52.252;20.922;2023-02-23T07:01:36;100663.06;;;1.12;100.00
61697;BME280;47610;52.252;20.922;2023-02-23T07:06:41;100663.19;;;1.18;100.00
61697;BME280;47610;52.252;20.922;2023-02-23T07:11:44;100658.36;;;1.33;100.00
61697;BME280;47610;52.252;20.922;2023-02-23T07:16:48;100663.92;;;1.55;100.00
61697;BME280;47610;52.252;20.922;2023-02-23T07:21:52;100658.75;;;1.85;100.00
61697;BME280;47610;52.252;20.922;2023-02-23T07:26:54;100653.19;;;2.30;100.00
61697;BME280;47610;52.252;20.922;2023-02-23T07:31:59;100653.62;;;2.73;100.00
61697;BME280;47610;52.252;20.922;2023-02-23T07:37:01;100649.98;;;3.20;100.00
61697;BME280;47610;52.252;20.922;2023-02-23T07:42:07;100645.27;;;3.42;100.00
61697;BME280;47610;52.252;20.922;2023-02-23T07:47:12;100644.70;;;3.57;100.00
61697;BME280;47610;52.252;20.922;2023-02-23T07:52:19;100637.21;;;3.98;100.00
61697;BME280;47610;52.252;20.922;2023-02-23T07:57:26;100631.28;;;4.99;100.00
61697;BME280;47610;52.252;20.922;2023-02-23T08:02:31;100620.98;;;5.96;100.00
61697;BME280;47610;52.252;20.922;2023-02-23T08:07:43;100617.32;;;7.36;100.00
61697;BME280;47610;52.252;20.922;2023-02-23T08:12:47;100614.17;;;9.36;91.89
61697;BME280;47610;52.252;20.922;2023-02-23T08:17:52;100613.40;;;10.03;75.34
61697;BME280;47610;52.252;20.922;2023-02-23T08:22:56;100607.39;;;9.92;70.46
61697;BME280;47610;52.252;20.922;2023-02-23T08:28:01;100603.03;;;9.55;72.33
61697;BME280;47610;52.252;20.922;2023-02-23T08:33:02;100601.13;;;8.99;72.77
61697;BME280;47610;52.252;20.922;2023-02-23T08:38:04;100593.23;;;8.50;74.41
61697;BME280;47610;52.252;20.922;2023-02-23T08:50:12;100585.27;;;8.89;72.16
61697;BME280;47610;52.252;20.922;2023-02-23T08:55:19;100581.59;;;9.15;71.54
61697;BME280;47610;52.252;20.922;2023-02-23T09:00:28;100579.49;;;9.33;72.90
61697;BME280;47610;52.252;20.922;2023-02-23T09:05:31;100578.59;;;9.97;69.31
61697;BME280;47610;52.252;20.922;2023-02-23T09:10:36;100582.98;;;11.06;63.88
61697;BME280;47610;52.252;20.922;2023-02-23T09:15:41;100577.05;;;12.29;53.41
61697;BME280;47610;52.252;20.922;2023-02-23T09:20:45;100578.30;;;13.37;50.49
61697;BME280;47610;52.252;20.922;2023-02-23T09:25:49;100574.51;;;15.16;46.74
61697;BME280;47610;52.252;20.922;2023-02-23T09:30:53;100566.75;;;15.70;42.33
61697;BME280;47610;52.252;20.922;2023-02-23T09:35:56;100559.75;;;15.14;40.88
61697;BME280;47610;52.252;20.922;2023-02-23T09:41:00;100550.08;;;14.40;42.61
61697;BME280;47610;52.252;20.922;2023-02-23T09:46:18;100541.75;;;14.36;43.10
61697;BME280;47610;52.252;20.922;2023-02-23T09:51:37;100542.81;;;14.58;42.71
61697;BME280;47610;52.252;20.922;2023-02-23T09:56:44;100534.72;;;14.77;41.80
61697;BME280;47610;52.252;20.922;2023-02-23T10:02:03;100533.75;;;15.11;40.58
61697;BME280;47610;52.252;20.922;2023-02-23T10:07:15;100534.92;;;15.68;38.87
61697;BME280;47610;52.252;20.922;2023-02-23T10:12:31;100516.87;;;16.05;37.02
61697;BME280;47610;52.252;20.922;2023-02-23T10:17:43;100518.41;;;16.13;37.24
61697;BME280;47610;52.252;20.922;2023-02-23T10:22:51;100519.80;;;15.86;35.35
61697;BME280;47610;52.252;20.922;2023-02-23T10:27:58;100491.59;;;14.63;37.96
61697;BME280;47610;52.252;20.922;2023-02-23T10:33:12;100497.23;;;13.80;40.31
61697;BME280;47610;52.252;20.922;2023-02-23T10:38:17;100484.17;;;12.69;44.60
61697;BME280;47610;52.252;20.922;2023-02-23T10:43:24;100474.02;;;12.53;46.12
61697;BME280;47610;52.252;20.922;2023-02-23T10:48:30;100472.52;;;12.83;46.66
61697;BME280;47610;52.252;20.922;2023-02-23T10:53:39;100461.33;;;12.81;46.31
61697;BME280;47610;52.252;20.922;2023-02-23T10:58:44;100456.69;;;11.80;49.19
61697;BME280;47610;52.252;20.922;2023-02-23T11:09:28;100432.63;;;9.45;61.48
61697;BME280;47610;52.252;20.922;2023-02-23T11:14:33;100424.23;;;8.57;66.87
61697;BME280;47610;52.252;20.922;2023-02-23T11:19:41;100417.54;;;7.87;72.08
61697;BME280;47610;52.252;20.922;2023-02-23T11:24:50;100408.11;;;7.50;76.47
61697;BME280;47610;52.252;20.922;2023-02-23T11:29:58;100398.72;;;7.11;80.07
61697;BME280;47610;52.252;20.922;2023-02-23T11:35:31;100391.52;;;6.97;83.62
61697;BME280;47610;52.252;20.922;2023-02-23T11:40:34;100387.34;;;7.04;84.80
61697;BME280;47610;52.252;20.922;2023-02-23T11:45:49;100379.39;;;7.00;85.35
61697;BME280;47610;52.252;20.922;2023-02-23T11:50:56;100370.63;;;6.88;86.81
61697;BME280;47610;52.252;20.922;2023-02-23T11:56:07;100367.64;;;6.85;88.08
61697;BME280;47610;52.252;20.922;2023-02-23T12:01:17;100355.43;;;6.85;88.96
61697;BME280;47610;52.252;20.922;2023-02-23T12:06:34;100350.50;;;6.72;89.30
61697;BME280;47610;52.252;20.922;2023-02-23T12:11:45;100341.40;;;6.64;90.89
61697;BME280;47610;52.252;20.922;2023-02-23T12:16:57;100331.08;;;6.69;91.49
61697;BME280;47610;52.252;20.922;2023-02-23T12:22:15;100324.40;;;6.72;91.61
61697;BME280;47610;52.252;20.922;2023-02-23T12:27:25;100313.32;;;6.71;91.48
61697;BME280;47610;52.252;20.922;2023-02-23T12:32:44;100304.58;;;6.72;92.20
61697;BME280;47610;52.252;20.922;2023-02-23T12:37:54;100300.23;;;6.69;93.14
61697;BME280;47610;52.252;20.922;2023-02-23T12:43:06;100285.13;;;6.66;93.06
61697;BME280;47610;52.252;20.922;2023-02-23T12:48:23;100281.98;;;6.48;93.57
61697;BME280;47610;52.252;20.922;2023-02-23T12:53:38;100276.11;;;6.36;95.66
61697;BME280;47610;52.252;20.922;2023-02-23T12:58:54;100272.13;;;6.22;97.31
61697;BME280;47610;52.252;20.922;2023-02-23T13:09:49;100259.17;;;6.02;99.86
61697;BME280;47610;52.252;20.922;2023-02-23T13:15:07;100253.25;;;6.03;100.00
61697;BME280;47610;52.252;20.922;2023-02-23T13:29:29;100229.91;;;6.00;100.00
61697;BME280;47610;52.252;20.922;2023-02-23T13:34:43;100222.36;;;5.88;100.00
61697;BME280;47610;52.252;20.922;2023-02-23T13:40:00;100216.19;;;5.84;100.00
61697;BME280;47610;52.252;20.922;2023-02-23T13:45:23;100212.81;;;5.78;100.00
61697;BME280;47610;52.252;20.922;2023-02-23T13:50:50;100202.77;;;5.78;100.00
61697;BME280;47610;52.252;20.922;2023-02-23T13:56:01;100197.50;;;5.71;100.00
61697;BME280;47610;52.252;20.922;2023-02-23T14:01:25;100188.48;;;5.67;100.00
61697;BME280;47610;52.252;20.922;2023-02-23T14:06:32;100178.69;;;5.69;100.00
61697;BME280;47610;52.252;20.922;2023-02-23T14:11:48;100175.96;;;5.69;100.00
61697;BME280;47610;52.252;20.922;2023-02-23T14:22:30;100167.45;;;5.56;100.00
61697;BME280;47610;52.252;20.922;2023-02-23T14:27:44;100163.77;;;5.49;100.00
61697;BME280;47610;52.252;20.922;2023-02-23T14:32:52;100151.98;;;5.42;100.00
61697;BME280;47610;52.252;20.922;2023-02-23T14:38:02;100147.64;;;5.38;100.00
61697;BME280;47610;52.252;20.922;2023-02-23T14:43:43;100144.89;;;5.34;100.00
61697;BME280;47610;52.252;20.922;2023-02-23T14:49:00;100139.80;;;5.25;100.00
61697;BME280;47610;52.252;20.922;2023-02-23T14:54:21;100134.69;;;5.12;100.00
61697;BME280;47610;52.252;20.922;2023-02-23T14:59:28;100128.90;;;5.06;100.00
61697;BME280;47610;52.252;20.922;2023-02-23T15:04:31;100126.27;;;5.02;100.00
61697;BME280;47610;52.252;20.922;2023-02-23T15:09:38;100121.60;;;4.97;100.00
61697;BME280;47610;52.252;20.922;2023-02-23T15:14:45;100117.82;;;4.90;100.00
61697;BME280;47610;52.252;20.922;2023-02-23T15:19:56;100105.59;;;4.84;100.00
61697;BME280;47610;52.252;20.922;2023-02-23T15:25:05;100108.20;;;4.76;100.00
61697;BME280;47610;52.252;20.922;2023-02-23T15:30:26;100095.39;;;4.66;100.00
61697;BME280;47610;52.252;20.922;2023-02-23T15:35:38;100084.05;;;4.54;100.00
61697;BME280;47610;52.252;20.922;2023-02-23T15:49:03;100076.66;;;4.28;100.00
61697;BME280;47610;52.252;20.922;2023-02-23T15:54:15;100071.14;;;4.16;100.00
61697;BME280;47610;52.252;20.922;2023-02-23T15:59:30;100064.91;;;4.05;100.00
61697;BME280;47610;52.252;20.922;2023-02-23T16:04:39;100057.91;;;3.95;100.00
61697;BME280;47610;52.252;20.922;2023-02-23T16:09:51;100061.33;;;3.87;100.00
61697;BME280;47610;52.252;20.922;2023-02-23T16:14:56;100058.14;;;3.79;100.00
61697;BME280;47610;52.252;20.922;2023-02-23T16:20:15;100053.14;;;3.69;100.00
61697;BME280;47610;52.252;20.922;2023-02-23T16:25:22;100046.98;;;3.59;100.00
61697;BME280;47610;52.252;20.922;2023-02-23T16:30:41;100052.53;;;3.52;100.00
61697;BME280;47610;52.252;20.922;2023-02-23T16:35:52;100053.59;;;3.44;100.00
61697;BME280;47610;52.252;20.922;2023-02-23T16:40:56;100048.87;;;3.37;100.00
61697;BME280;47610;52.252;20.922;2023-02-23T16:46:00;100042.85;;;3.33;100.00
61697;BME280;47610;52.252;20.922;2023-02-23T16:51:19;100035.89;;;3.33;100.00
61697;BME280;47610;52.252;20.922;2023-02-23T16:56:24;100026.98;;;3.32;100.00
61697;BME280;47610;52.252;20.922;2023-02-23T17:01:29;100019.95;;;3.29;100.00
61697;BME280;47610;52.252;20.922;2023-02-23T17:06:32;100007.30;;;3.25;100.00
61697;BME280;47610;52.252;20.922;2023-02-23T17:11:38;99999.70;;;3.21;100.00
61697;BME280;47610;52.252;20.922;2023-02-23T17:16:42;100002.92;;;3.17;100.00
61697;BME280;47610;52.252;20.922;2023-02-23T17:21:45;99997.81;;;3.15;100.00
61697;BME280;47610;52.252;20.922;2023-02-23T17:26:49;100000.94;;;3.13;100.00
61697;BME280;47610;52.252;20.922;2023-02-23T17:31:53;100001.84;;;3.15;100.00
61697;BME280;47610;52.252;20.922;2023-02-23T17:37:00;99993.64;;;3.16;100.00
61697;BME280;47610;52.252;20.922;2023-02-23T17:42:04;99986.70;;;3.16;100.00
61697;BME280;47610;52.252;20.922;2023-02-23T17:47:10;99979.39;;;3.18;100.00
61697;BME280;47610;52.252;20.922;2023-02-23T17:52:17;99960.90;;;3.18;100.00
61697;BME280;47610;52.252;20.922;2023-02-23T17:57:19;99951.98;;;3.18;100.00
61697;BME280;47610;52.252;20.922;2023-02-23T18:07:44;99944.73;;;3.18;100.00
61697;BME280;47610;52.252;20.922;2023-02-23T18:12:47;99932.19;;;3.14;100.00
61697;BME280;47610;52.252;20.922;2023-02-23T18:17:50;99923.33;;;3.11;100.00
61697;BME280;47610;52.252;20.922;2023-02-23T18:22:54;99915.31;;;3.08;100.00
61697;BME280;47610;52.252;20.922;2023-02-23T18:27:59;99904.52;;;3.05;100.00
61697;BME280;47610;52.252;20.922;2023-02-23T18:33:03;99897.64;;;3.00;100.00
61697;BME280;47610;52.252;20.922;2023-02-23T18:38:14;99895.97;;;2.95;100.00
61697;BME280;47610;52.252;20.922;2023-02-23T18:43:20;99888.63;;;2.89;100.00
61697;BME280;47610;52.252;20.922;2023-02-23T18:48:26;99878.63;;;2.82;100.00
61697;BME280;47610;52.252;20.922;2023-02-23T18:53:32;99874.30;;;2.76;100.00
61697;BME280;47610;52.252;20.922;2023-02-23T18:58:39;99877.02;;;2.72;100.00
61697;BME280;47610;52.252;20.922;2023-02-23T19:03:43;99873.66;;;2.68;100.00
61697;BME280;47610;52.252;20.922;2023-02-23T19:08:52;99862.41;;;2.63;100.00
61697;BME280;47610;52.252;20.922;2023-02-23T19:13:57;99856.86;;;2.60;100.00
61697;BME280;47610;52.252;20.922;2023-02-23T19:19:05;99849.18;;;2.57;100.00
61697;BME280;47610;52.252;20.922;2023-02-23T19:24:11;99843.92;;;2.55;100.00
61697;BME280;47610;52.252;20.922;2023-02-23T19:29:16;99837.80;;;2.53;100.00
61697;BME280;47610;52.252;20.922;2023-02-23T19:34:19;99830.29;;;2.51;100.00
61697;BME280;47610;52.252;20.922;2023-02-23T19:39:25;99827.10;;;2.49;100.00
61697;BME280;47610;52.252;20.922;2023-02-23T19:44:31;99817.05;;;2.47;100.00
61697;BME280;47610;52.252;20.922;2023-02-23T19:49:35;99813.32;;;2.43;100.00
61697;BME280;47610;52.252;20.922;2023-02-23T19:54:38;99801.45;;;2.40;100.00
61697;BME280;47610;52.252;20.922;2023-02-23T19:59:43;99798.02;;;2.37;100.00
61697;BME280;47610;52.252;20.922;2023-02-23T20:04:51;99790.71;;;2.33;100.00
61697;BME280;47610;52.252;20.922;2023-02-23T20:09:57;99781.73;;;2.26;100.00
61697;BME280;47610;52.252;20.922;2023-02-23T20:15:01;99779.15;;;2.24;100.00
61697;BME280;47610;52.252;20.922;2023-02-23T20:27:44;99755.57;;;2.12;100.00
61697;BME280;47610;52.252;20.922;2023-02-23T20:32:49;99752.34;;;2.06;100.00
61697;BME280;47610;52.252;20.922;2023-02-23T20:37:53;99744.39;;;2.02;100.00
61697;BME280;47610;52.252;20.922;2023-02-23T20:42:56;99739.39;;;1.96;100.00
61697;BME280;47610;52.252;20.922;2023-02-23T20:48:00;99725.59;;;1.90;100.00
61697;BME280;47610;52.252;20.922;2023-02-23T20:53:05;99718.95;;;1.86;100.00
61697;BME280;47610;52.252;20.922;2023-02-23T20:58:08;99711.34;;;1.81;100.00
61697;BME280;47610;52.252;20.922;2023-02-23T21:03:11;99702.79;;;1.75;100.00
61697;BME280;47610;52.252;20.922;2023-02-23T21:08:17;99692.14;;;1.70;100.00
61697;BME280;47610;52.252;20.922;2023-02-23T21:13:22;99684.98;;;1.66;100.00
61697;BME280;47610;52.252;20.922;2023-02-23T21:18:26;99682.82;;;1.64;100.00
61697;BME280;47610;52.252;20.922;2023-02-23T21:23:31;99673.57;;;1.63;100.00
61697;BME280;47610;52.252;20.922;2023-02-23T21:28:35;99667.41;;;1.62;100.00
61697;BME280;47610;52.252;20.922;2023-02-23T21:33:41;99658.33;;;1.61;100.00
61697;BME280;47610;52.252;20.922;2023-02-23T21:38:47;99649.55;;;1.64;100.00
61697;BME280;47610;52.252;20.922;2023-02-23T21:43:52;99637.76;;;1.65;100.00
61697;BME280;47610;52.252;20.922;2023-02-23T21:48:57;99638.13;;;1.64;100.00
61697;BME280;47610;52.252;20.922;2023-02-23T21:54:01;99627.23;;;1.66;100.00
61697;BME280;47610;52.252;20.922;2023-02-23T21:59:08;99615.67;;;1.65;100.00
61697;BME280;47610;52.252;20.922;2023-02-23T22:04:17;99607.35;;;1.67;100.00
61697;BME280;47610;52.252;20.922;2023-02-23T22:09:22;99593.72;;;1.66;100.00
61697;BME280;47610;52.252;20.922;2023-02-23T22:14:26;99584.80;;;1.65;100.00
61697;BME280;47610;52.252;20.922;2023-02-23T22:19:29;99585.65;;;1.64;100.00
61697;BME280;47610;52.252;20.922;2023-02-23T22:24:32;99577.92;;;1.65;100.00
61697;BME280;47610;52.252;20.922;2023-02-23T22:29:38;99574.54;;;1.67;100.00
61697;BME280;47610;52.252;20.922;2023-02-23T22:34:42;99566.80;;;1.70;100.00
61697;BME280;47610;52.252;20.922;2023-02-23T22:47:51;99553.15;;;1.94;100.00
61697;BME280;47610;52.252;20.922;2023-02-23T22:52:54;99547.02;;;1.97;100.00
61697;BME280;47610;52.252;20.922;2023-02-23T22:57:58;99541.48;;;2.00;100.00
61697;BME280;47610;52.252;20.922;2023-02-23T23:03:03;99535.46;;;2.03;100.00
61697;BME280;47610;52.252;20.922;2023-02-23T23:08:07;99526.06;;;2.03;100.00
61697;BME280;47610;52.252;20.922;2023-02-23T23:13:14;99514.20;;;2.01;100.00
61697;BME280;47610;52.252;20.922;2023-02-23T23:18:17;99505.72;;;2.01;100.00
61697;BME280;47610;52.252;20.922;2023-02-23T23:23:21;99494.52;;;2.00;100.00
61697;BME280;47610;52.252;20.922;2023-02-23T23:28:25;99488.59;;;2.00;100.00
61697;BME280;47610;52.252;20.922;2023-02-23T23:33:28;99485.19;;;2.03;100.00
61697;BME280;47610;52.252;20.922;2023-02-23T23:38:34;99482.48;;;2.09;100.00
61697;BME280;47610;52.252;20.922;2023-02-23T23:43:38;99476.72;;;2.14;100.00
61697;BME280;47610;52.252;20.922;2023-02-23T23:48:45;99473.73;;;2.26;100.00
61697;BME280;47610;52.252;20.922;2023-02-23T23:53:54;99466.73;;;2.35;100.00
61697;BME280;47610;52.252;20.922;2023-02-23T23:59:03;99452.02;;;2.42;100.00
